Hauptseite
METAR-TAF:

METAR-TAF

Flughäfen :

Flughafen Friedrichshafen

Friedrichshafen, Deutschland

Breite: 47-40N, Länge: 009-31E, Höhe: 416 m

Beobachtung

Neuester Wetterbericht von vor 15 Minuten, um 01:50 UTC
Wind 6 kt aus Nordost
Temperatur 15°C
Luftfeuchtigkeit 82%
Luftdruck 1018 hPa
Sichtweite 10 km oder mehr

METAR: EDNY 260150Z AUTO 04006KT 9999 // NCD 15/12 Q1018

Zeit: 04:05 (02:05 UTC)

Prognose

Neuester Wetterbericht von vor 3 Stunden und 5 Minuten, um 23:00 UTC
Gültige Prognose vom 26 um 00 UTC bis 26 um 24 UTC
Wind 4 kt aus Nordost
Sichtweite 10 km oder mehr
keine Wolken unter 1500 m und keine Kumulonimbus oder Gewitterwolken
Übergehend zu
vom 26 um 09 UTC bis 26 um 11 UTC
Wind 5 kt aus West/Südwest
Übergehend zu
vom 26 um 14 UTC bis 26 um 16 UTC
Wind 4 kt aus Nordost

TAF: EDNY 252300Z 2600/2624 04004KT CAVOK BECMG 2609/2611 25005KT BECMG 2614/2616 04004KT

Wetterbeobachtungen und Prognosen von mehr als 4000 Flughäfen (METAR und TAF Bericht).

Die verfügbaren Stationen werden durch gelbe und rote Markierungen auf der Karte dargestellt.

Führen Sie die Maus auf sie, um den Namen der Station zu sehen.

Darauf klicken, um die Beobachtung von Wetterbeobachtungen und Prognosen zu sehen.

Um die Karte zu ändern : klicken Sie auf den grünen Tasten mit einem schwarzen Kreuz Zum Vergrößern, auf den grünen Button mit einem Gedankenstrich zu verkleinern, oder auf die grünen Pfeile für benachbarte Karten.


METAR-TAF: